Terminal Aerodrome Forecast
Issued by NWS

Home | Current Version | Previous Version | Text Only | Print | Product List | Glossary On
Versions: 1 2 3 4 5 6 7 8 9 10 11 12 13 14
431
FTUS43 KFGF 241737
TAFBJI
TAF
KBJI 241737Z 2418/2518 17009KT P6SM BKN200
     FM242200 14007KT P6SM OVC070
     FM250000 11006KT P6SM OVC035
     FM250100 11005KT P6SM OVC015
      TEMPO 2501/2502 -SN OVC007
     FM250200 10004KT 1/2SM SN OVC010
     FM250600 VRB03KT 1SM -SN OVC015
     FM250900 28005KT P6SM OVC010
     FM251500 26009KT P6SM BKN010=

USA.gov is the U.S. government's official web portal to all federal, state and local government web resources and services.